createdAt,value
2019-05-01T00:02:05.924Z,45.30
2019-05-01T00:05:07.844Z,44.57
2019-05-01T00:07:42.711Z,45.00
2019-05-01T00:10:20.891Z,45.00
2019-05-01T00:12:55.823Z,43.33
2019-05-01T00:15:32.332Z,43.97
2019-05-01T00:18:07.227Z,45.67
2019-05-01T00:20:42.002Z,44.60
2019-05-01T00:23:16.940Z,44.43
2019-05-01T00:25:51.748Z,43.60
2019-05-01T00:28:26.675Z,44.07
2019-05-01T00:31:01.589Z,43.73
2019-05-01T00:33:36.365Z,43.67
2019-05-01T00:36:11.200Z,43.90
2019-05-01T00:38:46.079Z,44.20
2019-05-01T00:41:20.839Z,44.23
2019-05-01T00:43:55.623Z,45.03
2019-05-01T00:46:30.484Z,45.60
2019-05-01T00:49:05.327Z,45.30
2019-05-01T00:51:40.188Z,44.23
2019-05-01T00:54:15.027Z,45.87
2019-05-01T00:57:17.890Z,44.87
2019-05-01T01:00:03.664Z,44.07
2019-05-01T01:02:43.971Z,44.97
2019-05-01T01:05:18.947Z,44.93
2019-05-01T01:07:53.736Z,45.07
2019-05-01T01:10:28.588Z,44.33
2019-05-01T01:13:03.554Z,44.67
2019-05-01T01:15:38.476Z,44.03
2019-05-01T01:18:13.467Z,44.67
2019-05-01T01:20:48.363Z,43.53
2019-05-01T01:23:23.307Z,46.23
2019-05-01T01:25:58.277Z,45.57
2019-05-01T01:28:33.216Z,45.63
2019-05-01T01:31:08.196Z,43.77
2019-05-01T01:33:43.161Z,44.73
2019-05-01T01:36:18.013Z,45.27
2019-05-01T01:38:52.843Z,44.80
2019-05-01T01:41:27.984Z,45.07
2019-05-01T01:44:17.654Z,43.43
2019-05-01T01:46:53.482Z,44.63
2019-05-01T01:49:28.515Z,44.97
2019-05-01T01:52:03.812Z,46.23
2019-05-01T01:54:38.652Z,44.73
2019-05-01T01:57:13.844Z,44.87
2019-05-01T01:59:49.644Z,43.97
2019-05-01T02:02:39.559Z,44.90
2019-05-01T02:05:17.616Z,44.73
2019-05-01T02:07:52.618Z,44.87
2019-05-01T02:10:27.572Z,44.53
2019-05-01T02:13:02.639Z,42.53
2019-05-01T02:15:38.484Z,44.23
2019-05-01T02:18:13.308Z,43.40
2019-05-01T02:20:48.239Z,44.10
2019-05-01T02:23:24.191Z,44.57
2019-05-01T02:25:59.079Z,43.50
2019-05-01T02:28:48.575Z,43.43
2019-05-01T02:31:38.941Z,44.70
2019-05-01T02:34:15.237Z,44.63
2019-05-01T02:36:52.022Z,43.50
2019-05-01T02:39:28.528Z,44.67
2019-05-01T02:42:03.988Z,43.73
2019-05-01T02:44:44.394Z,42.73
2019-05-01T02:47:23.563Z,43.40
2019-05-01T02:50:06.887Z,42.97
2019-05-01T02:52:43.781Z,44.13
2019-05-01T02:55:26.052Z,44.40
2019-05-01T02:58:01.139Z,45.00
2019-05-01T03:00:36.072Z,45.23
2019-05-01T03:03:11.801Z,44.90
2019-05-01T03:05:47.765Z,45.63
2019-05-01T03:08:22.652Z,45.37
2019-05-01T03:10:57.550Z,46.27
2019-05-01T03:13:33.351Z,46.30
2019-05-01T03:16:10.184Z,45.40
2019-05-01T03:18:49.373Z,46.10
2019-05-01T03:21:30.091Z,45.70
2019-05-01T03:24:09.192Z,47.13
2019-05-01T03:26:44.232Z,46.20
2019-05-01T03:29:20.091Z,46.73
2019-05-01T03:32:15.527Z,45.73
2019-05-01T03:34:31.912Z,45.50
2019-05-01T03:37:06.752Z,44.77
2019-05-01T03:39:41.561Z,46.67
2019-05-01T03:42:16.565Z,45.60
2019-05-01T03:44:51.441Z,44.43
2019-05-01T03:47:27.067Z,45.23
2019-05-01T03:50:02.046Z,44.93
2019-05-01T03:52:37.019Z,45.30
2019-05-01T03:55:11.941Z,46.80
2019-05-01T03:57:46.942Z,45.90
2019-05-01T04:00:32.143Z,45.47
2019-05-01T04:03:24.691Z,45.07
2019-05-01T04:05:59.893Z,45.63
2019-05-01T04:08:34.809Z,44.97
2019-05-01T04:11:10.018Z,44.17
2019-05-01T04:13:44.904Z,45.73
2019-05-01T04:16:20.476Z,45.47
2019-05-01T04:18:55.474Z,44.23
2019-05-01T04:21:35.574Z,44.70
2019-05-01T04:24:10.797Z,43.93
2019-05-01T04:26:45.830Z,44.53
2019-05-01T04:29:33.116Z,44.17
2019-05-01T04:32:17.207Z,44.23
2019-05-01T04:35:17.527Z,43.43
2019-05-01T04:37:55.217Z,44.10
2019-05-01T04:40:30.318Z,44.73
2019-05-01T04:43:05.220Z,44.43
2019-05-01T04:45:40.108Z,43.70
2019-05-01T04:48:15.000Z,44.33
2019-05-01T04:50:49.888Z,43.40
2019-05-01T04:53:25.282Z,44.67
2019-05-01T04:56:00.383Z,45.10
2019-05-01T04:58:36.560Z,44.50
2019-05-01T05:01:11.443Z,43.73
2019-05-01T05:03:46.977Z,43.43
2019-05-01T05:06:21.864Z,44.70
2019-05-01T05:08:57.348Z,43.57
2019-05-01T05:11:47.736Z,44.03
2019-05-01T05:14:27.648Z,45.23
2019-05-01T05:17:06.070Z,44.17
2019-05-01T05:19:41.123Z,43.90
2019-05-01T05:22:18.341Z,45.00
2019-05-01T05:24:54.623Z,45.10
2019-05-01T05:27:30.146Z,44.63
2019-05-01T05:30:05.668Z,45.43
2019-05-01T05:32:43.403Z,45.03
2019-05-01T05:35:21.084Z,44.93
2019-05-01T05:38:17.254Z,45.20
2019-05-01T05:40:54.825Z,45.77
2019-05-01T05:43:30.224Z,45.53
2019-05-01T05:46:08.208Z,45.17
2019-05-01T05:48:43.609Z,45.73
2019-05-01T05:51:35.370Z,44.80
2019-05-01T05:54:32.662Z,45.03
2019-05-01T05:57:18.344Z,45.47
2019-05-01T06:00:04.668Z,44.90
2019-05-01T06:02:53.931Z,44.43
2019-05-01T06:05:50.224Z,44.77
2019-05-01T06:08:28.553Z,44.67
2019-05-01T06:11:12.640Z,45.47
2019-05-01T06:14:19.855Z,44.90
2019-05-01T06:17:16.734Z,44.40
2019-05-01T06:19:59.656Z,44.60
2019-05-01T06:22:56.881Z,44.90
2019-05-01T06:25:35.983Z,44.73
2019-05-01T06:28:13.527Z,46.53
2019-05-01T06:30:50.261Z,45.47
2019-05-01T06:33:25.265Z,46.23
2019-05-01T06:36:00.169Z,46.03
2019-05-01T06:38:40.120Z,45.67
2019-05-01T06:41:16.600Z,45.73
2019-05-01T06:44:02.130Z,46.27
2019-05-01T06:47:03.379Z,46.27
2019-05-01T06:49:49.008Z,45.37
2019-05-01T06:52:29.316Z,44.93
2019-05-01T06:55:02.086Z,46.83
2019-05-01T06:57:43.336Z,47.23
2019-05-01T07:00:17.224Z,47.60
2019-05-01T07:02:53.344Z,47.33
2019-05-01T07:05:28.844Z,46.73
2019-05-01T07:08:04.475Z,46.87
2019-05-01T07:10:43.944Z,46.73
2019-05-01T07:13:18.772Z,47.67
2019-05-01T07:15:58.777Z,46.70
2019-05-01T07:18:33.965Z,46.83
2019-05-01T07:21:09.020Z,47.77
2019-05-01T07:23:47.784Z,47.87
2019-05-01T07:26:27.052Z,47.60
2019-05-01T07:29:06.038Z,47.23
2019-05-01T07:31:42.063Z,46.57
2019-05-01T07:34:21.788Z,49.53
2019-05-01T07:36:57.012Z,47.23
2019-05-01T07:39:32.755Z,47.17
2019-05-01T07:42:28.064Z,48.20
2019-05-01T07:45:14.976Z,48.20
2019-05-01T07:47:50.817Z,46.53
2019-05-01T07:50:31.586Z,47.00
2019-05-01T07:53:02.623Z,46.13
2019-05-01T07:55:37.610Z,47.40
2019-05-01T07:58:16.133Z,47.53
2019-05-01T08:00:55.340Z,46.13
2019-05-01T08:03:32.501Z,48.90
2019-05-01T08:06:07.320Z,48.40
2019-05-01T08:08:42.152Z,46.87
2019-05-01T08:11:16.980Z,47.20
2019-05-01T08:13:51.809Z,48.73
2019-05-01T08:16:26.607Z,47.87
2019-05-01T08:19:08.928Z,48.93
2019-05-01T08:22:01.603Z,47.90
2019-05-01T08:24:33.739Z,47.53
2019-05-01T08:27:15.700Z,47.40
2019-05-01T08:29:57.647Z,48.30
2019-05-01T08:33:00.436Z,49.30
2019-05-01T08:35:36.499Z,48.63
2019-05-01T08:38:11.864Z,51.27
2019-05-01T08:40:50.767Z,49.87
2019-05-01T08:43:23.295Z,48.83
2019-05-01T08:46:20.936Z,48.00
2019-05-01T08:49:18.927Z,48.77
2019-05-01T08:51:53.919Z,49.40
2019-05-01T08:54:33.342Z,48.90
2019-05-01T08:57:07.794Z,48.03
2019-05-01T08:59:41.943Z,48.93
2019-05-01T09:02:18.532Z,49.40
2019-05-01T09:05:01.943Z,48.33
2019-05-01T09:07:30.225Z,50.60
2019-05-01T09:10:08.931Z,49.13
2019-05-01T09:12:46.913Z,49.60
2019-05-01T09:15:39.010Z,48.40
2019-05-01T09:18:13.919Z,50.23
2019-05-01T09:20:52.498Z,50.47
2019-05-01T09:23:30.245Z,49.07
2019-05-01T09:26:24.213Z,47.93
2019-05-01T09:29:02.683Z,49.20
2019-05-01T09:31:37.655Z,50.13
2019-05-01T09:34:14.142Z,50.93
2019-05-01T09:36:53.570Z,52.00
2019-05-01T09:39:29.365Z,51.67
2019-05-01T09:42:06.637Z,50.23
2019-05-01T09:44:41.560Z,51.30
2019-05-01T09:47:16.685Z,50.03
2019-05-01T09:49:53.816Z,50.43
2019-05-01T09:52:41.570Z,49.73
2019-05-01T09:55:24.938Z,48.90
2019-05-01T09:58:02.677Z,51.40
2019-05-01T10:00:36.813Z,49.18
2019-05-01T10:03:13.039Z,50.53
2019-05-01T10:05:48.670Z,49.83
2019-05-01T10:08:23.807Z,51.03
2019-05-01T10:10:59.903Z,50.50
2019-05-01T10:13:35.773Z,50.52
2019-05-01T10:16:10.724Z,50.55
2019-05-01T10:18:46.752Z,50.33
2019-05-01T10:21:22.389Z,48.73
2019-05-01T10:23:58.365Z,51.30
2019-05-01T10:26:34.995Z,49.27
2019-05-01T10:29:28.214Z,51.60
2019-05-01T10:32:08.558Z,51.20
2019-05-01T10:34:52.495Z,49.50
2019-05-01T10:37:28.294Z,51.35
2019-05-01T10:40:04.827Z,49.90
2019-05-01T10:42:41.217Z,49.67
2019-05-01T10:45:16.261Z,50.23
2019-05-01T10:47:51.394Z,51.30
2019-05-01T10:50:26.377Z,51.37
2019-05-01T10:53:01.283Z,51.97
2019-05-01T10:55:36.112Z,47.70
2019-05-01T10:58:12.730Z,48.70
2019-05-01T11:00:50.376Z,49.58
2019-05-01T11:03:39.454Z,48.92
2019-05-01T11:06:14.393Z,49.75
2019-05-01T11:08:49.224Z,50.08
2019-05-01T11:11:24.291Z,50.85
2019-05-01T11:13:59.215Z,49.53
2019-05-01T11:16:34.628Z,51.15
2019-05-01T11:19:09.462Z,49.33
2019-05-01T11:21:45.452Z,48.73
2019-05-01T11:24:20.428Z,49.00
2019-05-01T11:26:55.356Z,49.53
2019-05-01T11:29:30.349Z,49.20
2019-05-01T11:32:30.336Z,48.33
2019-05-01T11:35:28.639Z,48.17
2019-05-01T11:38:41.036Z,48.45
2019-05-01T11:41:21.537Z,48.73
2019-05-01T11:43:56.351Z,49.38
2019-05-01T11:46:34.527Z,48.35
2019-05-01T11:49:09.311Z,48.87
2019-05-01T11:51:44.223Z,48.48
2019-05-01T11:54:20.516Z,48.87
2019-05-01T11:56:55.506Z,47.48
2019-05-01T11:59:32.620Z,48.28
2019-05-01T12:02:07.181Z,47.98
2019-05-01T12:04:42.252Z,47.85
2019-05-01T12:07:17.699Z,47.80
2019-05-01T12:09:52.672Z,48.75
2019-05-01T12:12:29.080Z,47.93
2019-05-01T12:15:04.546Z,48.80
2019-05-01T12:17:50.112Z,45.65
2019-05-01T12:20:25.017Z,47.53
2019-05-01T12:22:59.885Z,48.80
2019-05-01T12:25:34.952Z,47.35
2019-05-01T12:28:09.716Z,47.27
2019-05-01T12:30:44.469Z,47.85
2019-05-01T12:33:19.291Z,47.30
2019-05-01T12:35:55.729Z,46.90
2019-05-01T12:38:30.497Z,47.10
2019-05-01T12:41:26.196Z,47.78
2019-05-01T12:44:01.095Z,47.40
2019-05-01T12:46:54.987Z,47.45
2019-05-01T12:49:29.800Z,46.48
2019-05-01T12:52:10.474Z,47.67
2019-05-01T12:54:52.751Z,47.25
2019-05-01T12:57:27.569Z,45.65
2019-05-01T13:00:08.921Z,46.90
2019-05-01T13:02:40.292Z,45.63
2019-05-01T13:05:15.211Z,46.80
2019-05-01T13:07:52.442Z,46.63
2019-05-01T13:10:26.672Z,45.92
2019-05-01T13:13:01.494Z,46.73
2019-05-01T13:15:36.444Z,45.33
2019-05-01T13:18:11.567Z,47.58
2019-05-01T13:20:46.370Z,46.80
2019-05-01T13:23:21.203Z,46.83
2019-05-01T13:25:59.999Z,46.23
2019-05-01T13:28:52.741Z,45.00
2019-05-01T13:31:44.523Z,44.83
2019-05-01T13:34:19.297Z,44.98
2019-05-01T13:37:02.767Z,45.40
2019-05-01T13:39:31.689Z,43.68
2019-05-01T13:42:08.945Z,43.78
2019-05-01T13:44:44.065Z,44.98
2019-05-01T13:47:18.894Z,45.65
2019-05-01T13:49:53.815Z,44.10
2019-05-01T13:52:28.624Z,44.00
2019-05-01T13:55:03.537Z,43.52
2019-05-01T13:57:39.447Z,44.40
2019-05-01T14:00:16.695Z,44.38
2019-05-01T14:02:51.663Z,45.43
2019-05-01T14:05:26.569Z,45.35
2019-05-01T14:08:01.452Z,43.75
2019-05-01T14:10:36.340Z,45.05
2019-05-01T14:13:11.155Z,44.73
2019-05-01T14:15:45.988Z,43.78
2019-05-01T14:18:20.807Z,44.48
2019-05-01T14:21:11.420Z,44.60
2019-05-01T14:24:15.044Z,44.40
2019-05-01T14:26:49.901Z,45.20
2019-05-01T14:29:25.640Z,45.03
2019-05-01T14:32:00.464Z,43.70
2019-05-01T14:34:35.320Z,44.35
2019-05-01T14:37:10.059Z,44.42
2019-05-01T14:39:44.829Z,44.05
2019-05-01T14:42:19.587Z,45.10
2019-05-01T14:44:54.439Z,45.92
2019-05-01T14:47:29.262Z,44.38
2019-05-01T14:50:04.329Z,43.80
2019-05-01T14:52:39.245Z,44.63
2019-05-01T14:55:14.361Z,45.05
2019-05-01T14:57:49.121Z,44.88
2019-05-01T15:00:24.128Z,44.80
2019-05-01T15:02:58.948Z,45.55
2019-05-01T15:05:34.404Z,45.83
2019-05-01T15:08:09.389Z,45.45
2019-05-01T15:10:44.236Z,44.15
2019-05-01T15:13:28.795Z,43.63
2019-05-01T15:16:09.919Z,43.90
2019-05-01T15:19:06.104Z,44.27
2019-05-01T15:21:41.009Z,44.40
2019-05-01T15:24:15.840Z,45.00
2019-05-01T15:26:57.943Z,45.17
2019-05-01T15:29:40.733Z,45.15
2019-05-01T15:32:18.883Z,45.63
2019-05-01T15:35:00.478Z,44.55
2019-05-01T15:37:35.789Z,44.13
2019-05-01T15:40:32.343Z,44.27
2019-05-01T15:43:26.372Z,44.30
2019-05-01T15:46:01.152Z,44.35
2019-05-01T15:48:35.908Z,45.03
2019-05-01T15:51:10.669Z,44.88
2019-05-01T15:53:45.664Z,45.33
2019-05-01T15:56:20.594Z,45.67
2019-05-01T15:58:55.367Z,44.83
2019-05-01T16:01:52.824Z,45.05
2019-05-01T16:04:27.932Z,44.10
2019-05-01T16:07:02.835Z,44.10
2019-05-01T16:09:37.679Z,43.83
2019-05-01T16:12:34.309Z,43.83
2019-05-01T16:15:16.348Z,44.90
2019-05-01T16:17:51.099Z,45.10
2019-05-01T16:20:26.009Z,44.08
2019-05-01T16:23:00.830Z,44.18
2019-05-01T16:25:35.588Z,45.08
2019-05-01T16:28:10.523Z,44.27
2019-05-01T16:30:45.440Z,44.30
2019-05-01T16:33:20.264Z,43.45
2019-05-01T16:35:55.041Z,44.03
2019-05-01T16:38:39.384Z,43.40
2019-05-01T16:41:14.289Z,43.55
2019-05-01T16:43:49.044Z,44.35
2019-05-01T16:46:24.196Z,43.70
2019-05-01T16:49:00.300Z,44.03
2019-05-01T16:51:37.187Z,43.35
2019-05-01T16:54:11.777Z,43.80
2019-05-01T16:56:46.614Z,43.60
2019-05-01T16:59:21.355Z,44.05
2019-05-01T17:02:02.525Z,43.83
2019-05-01T17:04:45.892Z,44.98
2019-05-01T17:07:34.268Z,43.40
2019-05-01T17:10:19.763Z,44.18
2019-05-01T17:12:55.375Z,43.13
2019-05-01T17:15:41.405Z,43.30
2019-05-01T17:18:16.999Z,43.38
2019-05-01T17:20:51.891Z,43.65
2019-05-01T17:23:26.732Z,43.63
2019-05-01T17:26:01.487Z,43.10
2019-05-01T17:28:36.327Z,43.15
2019-05-01T17:31:11.255Z,43.92
2019-05-01T17:33:46.382Z,43.35
2019-05-01T17:36:21.244Z,43.10
2019-05-01T17:38:56.364Z,43.17
2019-05-01T17:41:31.110Z,43.05
2019-05-01T17:44:05.995Z,41.98
2019-05-01T17:46:41.877Z,43.63
2019-05-01T17:49:18.334Z,43.38
2019-05-01T17:51:53.252Z,42.95
2019-05-01T17:54:28.332Z,42.67
2019-05-01T17:57:03.185Z,43.50
2019-05-01T17:59:38.064Z,43.20
2019-05-01T18:02:47.241Z,42.95
2019-05-01T18:05:41.076Z,43.03
2019-05-01T18:08:16.141Z,43.55
2019-05-01T18:10:53.005Z,41.77
2019-05-01T18:13:27.972Z,43.33
2019-05-01T18:16:02.859Z,42.40
2019-05-01T18:18:37.720Z,42.25
2019-05-01T18:21:12.987Z,42.40
2019-05-01T18:24:05.752Z,42.75
2019-05-01T18:27:08.655Z,43.30
2019-05-01T18:29:45.613Z,42.85
2019-05-01T18:32:27.667Z,43.02
2019-05-01T18:35:02.524Z,43.40
2019-05-01T18:37:44.078Z,43.92
2019-05-01T18:40:23.591Z,43.97
2019-05-01T18:42:58.455Z,43.10
2019-05-01T18:45:53.663Z,42.48
2019-05-01T18:48:28.647Z,43.20
2019-05-01T18:51:03.836Z,42.95
2019-05-01T18:53:39.424Z,43.15
2019-05-01T18:56:14.368Z,42.98
2019-05-01T18:58:49.136Z,42.80
2019-05-01T19:01:25.155Z,42.55
2019-05-01T19:04:00.051Z,43.30
2019-05-01T19:06:41.761Z,42.93
2019-05-01T19:09:15.118Z,43.25
2019-05-01T19:11:48.417Z,44.00
2019-05-01T19:14:28.527Z,43.05
2019-05-01T19:17:00.304Z,43.15
2019-05-01T19:19:36.103Z,44.20
2019-05-01T19:22:11.314Z,44.50
2019-05-01T19:24:47.291Z,44.70
2019-05-01T19:27:24.256Z,44.85
2019-05-01T19:29:58.788Z,43.90
2019-05-01T19:32:33.879Z,43.30
2019-05-01T19:35:09.835Z,43.63
2019-05-01T19:37:44.624Z,43.00
2019-05-01T19:40:19.649Z,43.40
2019-05-01T19:42:57.978Z,43.50
2019-05-01T19:45:30.951Z,43.23
2019-05-01T19:48:06.078Z,42.62
2019-05-01T19:50:48.065Z,42.03
2019-05-01T19:53:17.995Z,43.20
2019-05-01T19:55:52.895Z,41.95
2019-05-01T19:58:27.772Z,43.60
2019-05-01T20:01:04.941Z,42.50
2019-05-01T20:03:39.996Z,43.70
2019-05-01T20:06:15.430Z,42.05
2019-05-01T20:08:50.467Z,43.13
2019-05-01T20:11:25.288Z,43.33
2019-05-01T20:14:00.271Z,42.85
2019-05-01T20:16:35.263Z,41.85
2019-05-01T20:19:10.028Z,42.62
2019-05-01T20:21:45.108Z,42.62
2019-05-01T20:24:19.939Z,41.90
2019-05-01T20:26:54.888Z,42.80
2019-05-01T20:29:30.647Z,42.70
2019-05-01T20:32:05.569Z,42.15
2019-05-01T20:34:40.320Z,43.33
2019-05-01T20:37:15.279Z,42.53
2019-05-01T20:39:50.204Z,42.88
2019-05-01T20:42:25.008Z,41.88
2019-05-01T20:45:05.333Z,42.17
2019-05-01T20:47:45.113Z,41.33
2019-05-01T20:50:14.098Z,41.48
2019-05-01T20:52:50.224Z,40.95
2019-05-01T20:55:24.975Z,42.60
2019-05-01T20:58:16.970Z,41.68
2019-05-01T21:00:55.783Z,41.18
2019-05-01T21:03:31.132Z,41.45
2019-05-01T21:06:28.318Z,41.90
2019-05-01T21:09:16.155Z,42.88
2019-05-01T21:12:04.674Z,42.20
2019-05-01T21:14:30.962Z,41.73
2019-05-01T21:17:09.467Z,42.45
2019-05-01T21:19:44.083Z,41.70
2019-05-01T21:22:20.094Z,42.88
2019-05-01T21:24:54.865Z,42.98
2019-05-01T21:27:29.698Z,42.53
2019-05-01T21:30:04.937Z,41.55
2019-05-01T21:32:39.905Z,42.00
2019-05-01T21:35:14.824Z,41.47
2019-05-01T21:37:49.564Z,41.20
2019-05-01T21:40:37.389Z,41.87
2019-05-01T21:43:03.048Z,41.23
2019-05-01T21:45:38.106Z,41.15
2019-05-01T21:48:13.446Z,40.75
2019-05-01T21:50:48.305Z,40.05
2019-05-01T21:53:23.884Z,40.30
2019-05-01T21:56:02.103Z,40.88
2019-05-01T21:58:36.279Z,39.98
2019-05-01T22:01:11.507Z,40.88
2019-05-01T22:03:46.347Z,40.83
2019-05-01T22:06:21.155Z,41.63
2019-05-01T22:08:56.056Z,42.40
2019-05-01T22:11:33.069Z,40.33
2019-05-01T22:14:12.495Z,40.12
2019-05-01T22:16:47.650Z,39.67
2019-05-01T22:19:22.765Z,40.00
2019-05-01T22:22:15.611Z,40.73
2019-05-01T22:24:58.417Z,39.63
2019-05-01T22:27:40.017Z,39.75
2019-05-01T22:30:27.866Z,40.90
2019-05-01T22:33:02.845Z,40.83
2019-05-01T22:35:41.019Z,41.00
2019-05-01T22:38:15.936Z,39.55
2019-05-01T22:41:05.869Z,41.63
2019-05-01T22:43:35.354Z,41.60
2019-05-01T22:46:17.228Z,41.53
2019-05-01T22:48:52.159Z,41.63
2019-05-01T22:51:27.051Z,41.55
2019-05-01T22:54:01.820Z,42.15
2019-05-01T22:56:36.600Z,41.65
2019-05-01T22:59:12.016Z,41.92
2019-05-01T23:01:52.656Z,41.20
2019-05-01T23:04:25.636Z,42.15
2019-05-01T23:07:00.477Z,42.70
2019-05-01T23:09:35.604Z,41.45
2019-05-01T23:12:24.532Z,40.48
2019-05-01T23:14:59.799Z,41.30
2019-05-01T23:17:43.631Z,42.73
2019-05-01T23:20:18.628Z,42.20
2019-05-01T23:22:53.451Z,40.50
2019-05-01T23:25:28.301Z,41.10
2019-05-01T23:28:04.157Z,40.92
2019-05-01T23:30:39.928Z,40.40
2019-05-01T23:33:14.866Z,41.60
2019-05-01T23:35:49.778Z,41.15
2019-05-01T23:38:24.519Z,41.07
2019-05-01T23:40:59.315Z,41.35
2019-05-01T23:43:34.176Z,42.83
2019-05-01T23:46:09.305Z,42.58
2019-05-01T23:48:44.224Z,42.43
2019-05-01T23:51:18.996Z,41.23
2019-05-01T23:53:53.770Z,41.00
2019-05-01T23:56:31.046Z,41.10
2019-05-01T23:59:05.452Z,41.70
